createdAt,value
2018-09-29T00:01:03.907Z,2.30
2018-09-29T00:06:07.800Z,1.93
2018-09-29T00:11:11.666Z,2.27
2018-09-29T00:16:15.541Z,1.80
2018-09-29T00:21:19.416Z,1.50
2018-09-29T00:26:23.377Z,1.47
2018-09-29T00:31:27.232Z,1.77
2018-09-29T00:36:37.480Z,1.60
2018-09-29T00:41:41.344Z,1.40
2018-09-29T00:46:46.708Z,1.37
2018-09-29T00:51:50.589Z,1.37
2018-09-29T00:56:54.544Z,1.40
2018-09-29T01:01:58.418Z,1.30
2018-09-29T01:07:02.290Z,1.70
2018-09-29T01:12:06.178Z,1.00
2018-09-29T01:17:10.059Z,1.20
2018-09-29T01:22:13.960Z,1.10
2018-09-29T01:27:17.858Z,0.70
2018-09-29T01:32:21.749Z,0.73
2018-09-29T01:37:25.386Z,1.27
2018-09-29T01:42:29.194Z,1.00
2018-09-29T01:47:33.314Z,1.50
2018-09-29T01:52:37.172Z,1.10
2018-09-29T01:57:40.812Z,0.90
2018-09-29T02:02:44.628Z,1.07
2018-09-29T02:07:48.519Z,1.20
2018-09-29T02:12:52.392Z,1.03
2018-09-29T02:17:56.280Z,1.00
2018-09-29T02:23:00.157Z,1.07
2018-09-29T02:28:04.029Z,0.90
2018-09-29T02:33:07.928Z,1.20
2018-09-29T02:38:11.800Z,1.17
2018-09-29T02:43:22.315Z,1.03
2018-09-29T02:48:26.179Z,1.17
2018-09-29T02:53:30.057Z,0.90
2018-09-29T02:58:33.936Z,1.00
2018-09-29T03:03:37.793Z,1.33
2018-09-29T03:08:41.908Z,1.40
2018-09-29T03:13:45.765Z,1.13
2018-09-29T03:18:49.609Z,1.30
2018-09-29T03:23:53.485Z,1.03
2018-09-29T03:28:58.287Z,1.57
2018-09-29T03:34:02.155Z,1.10
2018-09-29T03:39:08.444Z,1.00
2018-09-29T03:44:12.308Z,1.00
2018-09-29T03:49:16.168Z,0.97
2018-09-29T03:54:20.027Z,0.97
2018-09-29T03:59:23.888Z,1.57
2018-09-29T04:04:27.737Z,1.27
2018-09-29T04:09:31.593Z,1.07
2018-09-29T04:14:35.449Z,0.90
2018-09-29T04:19:39.305Z,0.70
2018-09-29T04:24:43.271Z,1.13
2018-09-29T04:29:47.133Z,1.23
2018-09-29T04:34:50.988Z,1.07
2018-09-29T04:39:54.882Z,0.80
2018-09-29T04:44:58.749Z,0.90
2018-09-29T04:50:02.618Z,1.00
2018-09-29T04:55:06.478Z,0.83
2018-09-29T05:00:10.333Z,0.90
2018-09-29T05:05:15.068Z,0.90
2018-09-29T05:10:18.933Z,1.00
2018-09-29T05:15:22.796Z,1.67
2018-09-29T05:20:26.658Z,1.43
2018-09-29T05:25:30.520Z,1.60
2018-09-29T05:30:34.400Z,5.07
2018-09-29T05:35:38.282Z,10.63
2018-09-29T05:40:42.194Z,5.17
2018-09-29T05:45:46.065Z,5.30
2018-09-29T05:50:50.080Z,1.80
2018-09-29T05:55:53.936Z,1.23
2018-09-29T06:00:58.773Z,0.70
2018-09-29T06:06:02.659Z,0.70
2018-09-29T06:11:06.778Z,0.77
2018-09-29T06:16:10.652Z,0.80
2018-09-29T06:21:14.519Z,0.80
2018-09-29T06:26:18.387Z,0.80
2018-09-29T06:31:22.273Z,0.80
2018-09-29T06:36:26.257Z,0.90
2018-09-29T06:41:30.149Z,0.67
2018-09-29T06:46:34.017Z,0.80
2018-09-29T06:51:37.881Z,0.67
2018-09-29T06:56:41.744Z,0.60
2018-09-29T07:01:45.612Z,0.70
2018-09-29T07:06:49.476Z,0.60
2018-09-29T07:11:53.350Z,0.43
2018-09-29T07:16:57.208Z,0.60
2018-09-29T07:22:01.574Z,0.60
2018-09-29T07:27:05.715Z,0.40
2018-09-29T07:32:09.581Z,0.50
2018-09-29T07:37:13.452Z,0.80
2018-09-29T07:42:17.316Z,0.50
2018-09-29T07:47:21.182Z,0.40
2018-09-29T07:52:25.061Z,0.60
2018-09-29T07:57:29.250Z,0.53
2018-09-29T08:02:33.350Z,0.30
2018-09-29T08:07:37.230Z,0.73
2018-09-29T08:12:41.097Z,0.60
2018-09-29T08:17:44.961Z,0.53
2018-09-29T08:22:48.955Z,0.70
2018-09-29T08:27:52.971Z,0.90
2018-09-29T08:32:57.765Z,0.70
2018-09-29T08:38:01.788Z,0.93
2018-09-29T08:43:05.702Z,0.77
2018-09-29T08:48:09.639Z,0.70
2018-09-29T08:53:13.649Z,0.70
2018-09-29T08:58:18.575Z,1.20
2018-09-29T09:03:22.701Z,0.90
2018-09-29T09:08:26.572Z,0.80
2018-09-29T09:13:30.504Z,0.70
2018-09-29T09:18:34.584Z,0.80
2018-09-29T09:23:39.049Z,1.33
2018-09-29T09:28:42.898Z,0.70
2018-09-29T09:33:47.067Z,0.70
2018-09-29T09:38:50.954Z,0.53
2018-09-29T09:43:54.838Z,0.70
2018-09-29T09:48:58.797Z,0.90
2018-09-29T09:54:02.685Z,0.77
2018-09-29T09:59:06.936Z,0.77
2018-09-29T10:04:10.804Z,0.80
2018-09-29T10:09:15.061Z,0.80
2018-09-29T10:14:19.017Z,0.80
2018-09-29T10:19:23.208Z,0.90
2018-09-29T10:24:27.073Z,1.10
2018-09-29T10:29:30.985Z,0.93
2018-09-29T10:34:34.993Z,1.00
2018-09-29T10:39:39.761Z,1.00
2018-09-29T10:44:45.066Z,0.63
2018-09-29T10:49:49.270Z,0.90
2018-09-29T10:54:53.166Z,0.70
2018-09-29T10:59:57.866Z,0.93
2018-09-29T11:05:02.226Z,1.03
2018-09-29T11:10:06.070Z,0.80
2018-09-29T11:15:09.992Z,1.12
2018-09-29T11:20:13.893Z,1.00
2018-09-29T11:25:18.092Z,0.83
2018-09-29T11:30:24.776Z,0.83
2018-09-29T11:35:28.668Z,0.90
2018-09-29T11:40:33.872Z,0.97
2018-09-29T11:45:39.639Z,0.90
2018-09-29T11:50:43.441Z,0.73
2018-09-29T11:55:49.320Z,1.17
2018-09-29T12:00:53.312Z,1.10
2018-09-29T12:05:57.251Z,0.70
2018-09-29T12:11:01.099Z,0.70
2018-09-29T12:16:05.060Z,0.83
2018-09-29T12:21:08.984Z,0.93
2018-09-29T12:26:12.821Z,1.00
2018-09-29T12:31:17.744Z,1.23
2018-09-29T12:36:22.009Z,1.00
2018-09-29T12:41:26.687Z,0.60
2018-09-29T12:46:31.128Z,1.50
2018-09-29T12:51:35.035Z,1.20
2018-09-29T12:56:38.914Z,1.20
2018-09-29T13:01:42.788Z,0.90
2018-09-29T13:06:46.666Z,0.90
2018-09-29T13:11:50.772Z,1.07
2018-09-29T13:16:54.797Z,0.90
2018-09-29T13:21:58.636Z,0.90
2018-09-29T13:27:02.534Z,0.90
2018-09-29T13:32:15.406Z,1.10
2018-09-29T13:37:24.595Z,1.03
2018-09-29T13:42:31.356Z,0.80
2018-09-29T13:47:34.972Z,1.27
2018-09-29T13:52:38.532Z,0.90
2018-09-29T13:57:42.497Z,1.10
2018-09-29T14:02:46.335Z,1.10
2018-09-29T14:07:50.179Z,1.23
2018-09-29T14:12:54.137Z,0.90
2018-09-29T14:17:58.000Z,9.37
2018-09-29T14:23:02.355Z,0.70
2018-09-29T14:28:06.741Z,2.97
2018-09-29T14:33:10.619Z,5.07
2018-09-29T14:38:14.765Z,4.43
2018-09-29T14:43:18.718Z,1.20
2018-09-29T14:48:22.616Z,0.93
2018-09-29T14:53:27.120Z,0.97
2018-09-29T14:58:31.017Z,0.87
2018-09-29T15:03:35.132Z,0.80
2018-09-29T15:08:39.092Z,0.80
2018-09-29T15:13:44.163Z,0.60
2018-09-29T15:18:48.384Z,0.70
2018-09-29T15:23:52.616Z,0.80
2018-09-29T15:28:56.510Z,0.77
2018-09-29T15:34:01.623Z,1.10
2018-09-29T15:39:09.404Z,0.70
2018-09-29T15:44:13.248Z,1.20
2018-09-29T15:49:18.525Z,0.60
2018-09-29T15:54:22.990Z,0.70
2018-09-29T15:59:26.952Z,0.80
2018-09-29T16:04:31.173Z,0.63
2018-09-29T16:09:35.197Z,0.63
2018-09-29T16:14:38.690Z,0.80
2018-09-29T16:19:42.292Z,3.00
2018-09-29T16:24:45.833Z,0.93
2018-09-29T16:29:49.353Z,1.10
2018-09-29T16:34:52.935Z,0.50
2018-09-29T16:39:57.064Z,0.90
2018-09-29T16:45:00.777Z,0.90
2018-09-29T16:50:04.408Z,0.70
2018-09-29T16:55:07.953Z,0.90
2018-09-29T17:00:11.489Z,0.80
2018-09-29T17:05:15.319Z,0.70
2018-09-29T17:10:18.851Z,0.90
2018-09-29T17:15:22.380Z,0.60
2018-09-29T17:20:25.940Z,0.70
2018-09-29T17:25:29.754Z,0.70
2018-09-29T17:30:33.493Z,0.50
2018-09-29T17:35:37.270Z,0.90
2018-09-29T17:40:40.912Z,1.20
2018-09-29T17:45:44.439Z,0.90
2018-09-29T17:50:48.297Z,0.90
2018-09-29T17:55:52.173Z,0.97
2018-09-29T18:00:56.078Z,0.80
2018-09-29T18:05:59.978Z,0.90
2018-09-29T18:11:03.583Z,0.70
2018-09-29T18:16:07.108Z,1.30
2018-09-29T18:21:12.005Z,1.80
2018-09-29T18:26:18.589Z,1.50
2018-09-29T18:31:22.099Z,1.40
2018-09-29T18:36:25.617Z,2.30
2018-09-29T18:41:29.143Z,2.80
2018-09-29T18:46:32.676Z,2.87
2018-09-29T18:51:36.203Z,3.20
2018-09-29T18:56:39.754Z,2.83
2018-09-29T19:01:43.795Z,2.97
2018-09-29T19:06:48.060Z,2.63
2018-09-29T19:11:52.045Z,2.83
2018-09-29T19:16:56.324Z,4.40
2018-09-29T19:22:00.059Z,4.30
2018-09-29T19:27:03.966Z,4.20
2018-09-29T19:32:08.100Z,4.30
2018-09-29T19:37:11.860Z,5.03
2018-09-29T19:42:15.492Z,5.63
2018-09-29T19:47:19.638Z,6.10
2018-09-29T19:52:23.448Z,7.43
2018-09-29T19:57:27.211Z,7.43
2018-09-29T20:02:30.988Z,7.03
2018-09-29T20:07:35.177Z,6.80
2018-09-29T20:12:39.260Z,6.10
2018-09-29T20:17:43.396Z,5.63
2018-09-29T20:22:47.356Z,4.47
2018-09-29T20:27:51.264Z,4.30
2018-09-29T20:32:55.049Z,3.13
2018-09-29T20:37:59.004Z,3.10
2018-09-29T20:43:02.943Z,3.40
2018-09-29T20:48:06.936Z,2.87
2018-09-29T20:53:11.098Z,2.60
2018-09-29T20:58:15.497Z,2.50
2018-09-29T21:03:19.933Z,2.60
2018-09-29T21:08:23.847Z,3.63
2018-09-29T21:13:27.947Z,2.77
2018-09-29T21:18:32.395Z,2.70
2018-09-29T21:23:36.876Z,3.00
2018-09-29T21:28:40.413Z,3.27
2018-09-29T21:33:43.949Z,3.40
2018-09-29T21:38:48.224Z,3.00
2018-09-29T21:43:52.304Z,3.37
2018-09-29T21:48:55.820Z,3.73
2018-09-29T21:53:59.650Z,3.53
2018-09-29T21:59:03.311Z,3.90
2018-09-29T22:04:07.233Z,3.77
2018-09-29T22:09:11.125Z,3.53
2018-09-29T22:14:14.751Z,4.63
2018-09-29T22:19:18.519Z,3.83
2018-09-29T22:24:22.135Z,4.80
2018-09-29T22:29:25.669Z,5.50
2018-09-29T22:34:29.438Z,6.03
2018-09-29T22:39:33.305Z,6.17
2018-09-29T22:44:37.183Z,5.20
2018-09-29T22:49:41.053Z,4.80
2018-09-29T22:54:45.017Z,4.37
2018-09-29T22:59:48.899Z,4.77
2018-09-29T23:04:56.336Z,4.23
2018-09-29T23:10:01.845Z,4.80
2018-09-29T23:15:05.579Z,4.37
2018-09-29T23:20:10.010Z,4.00
2018-09-29T23:25:13.800Z,3.80
2018-09-29T23:30:17.724Z,3.73
2018-09-29T23:35:21.315Z,3.40
2018-09-29T23:40:24.925Z,2.87
2018-09-29T23:45:28.715Z,3.17
2018-09-29T23:50:32.604Z,3.23
2018-09-29T23:55:36.464Z,3.23
